createdAt,value
2023-09-18T00:00:15.683Z,68.52
2023-09-18T00:02:59.996Z,68.14
2023-09-18T00:05:44.870Z,68.14
2023-09-18T00:08:29.316Z,67.74
2023-09-18T00:11:02.305Z,67.31
2023-09-18T00:13:46.715Z,67.25
2023-09-18T00:16:19.611Z,67.25
2023-09-18T00:19:02.695Z,68.05
2023-09-18T00:21:35.968Z,67.42
2023-09-18T00:24:19.049Z,67.68
2023-09-18T00:26:53.583Z,67.54
2023-09-18T00:29:36.524Z,67.74
2023-09-18T00:32:09.413Z,67.72
2023-09-18T00:34:53.644Z,67.99
2023-09-18T00:37:26.783Z,68.07
2023-09-18T00:39:59.566Z,68.03
2023-09-18T00:42:42.307Z,67.92
2023-09-18T00:45:15.109Z,67.49
2023-09-18T00:48:02.134Z,67.27
2023-09-18T00:50:34.866Z,66.88
2023-09-18T00:53:22.040Z,67.12
2023-09-18T00:55:57.769Z,66.75
2023-09-18T00:58:42.455Z,66.83
2023-09-18T01:01:25.706Z,66.77
2023-09-18T01:04:00.551Z,66.32
2023-09-18T01:06:46.401Z,66.65
2023-09-18T01:09:30.561Z,66.60
2023-09-18T01:12:15.229Z,66.36
2023-09-18T01:15:06.453Z,66.49
2023-09-18T01:17:40.057Z,66.22
2023-09-18T01:20:25.895Z,66.52
2023-09-18T01:22:58.716Z,66.10
2023-09-18T01:25:41.472Z,66.49
2023-09-18T01:28:14.092Z,66.56
2023-09-18T01:30:58.232Z,66.68
2023-09-18T01:33:45.688Z,67.14
2023-09-18T01:36:28.777Z,67.35
2023-09-18T01:39:01.581Z,67.59
2023-09-18T01:41:44.932Z,67.78
2023-09-18T01:44:17.914Z,67.99
2023-09-18T01:47:06.183Z,67.88
2023-09-18T01:49:52.018Z,68.35
2023-09-18T01:52:25.005Z,68.39
2023-09-18T01:55:10.157Z,68.32
2023-09-18T01:57:52.713Z,68.48
2023-09-18T02:00:35.434Z,68.37
2023-09-18T02:03:12.224Z,68.14
2023-09-18T02:05:54.799Z,68.15
2023-09-18T02:08:28.443Z,68.15
2023-09-18T02:11:10.784Z,67.05
2023-09-18T02:13:43.508Z,67.90
2023-09-18T02:16:29.196Z,67.80
2023-09-18T02:19:12.854Z,67.95
2023-09-18T02:21:59.197Z,68.10
2023-09-18T02:24:41.680Z,67.95
2023-09-18T02:27:27.241Z,67.72
2023-09-18T02:29:59.843Z,67.89
2023-09-18T02:32:42.662Z,67.87
2023-09-18T02:35:25.164Z,68.26
2023-09-18T02:37:58.887Z,68.78
2023-09-18T02:40:44.025Z,69.04
2023-09-18T02:43:16.885Z,69.47
2023-09-18T02:45:59.348Z,69.53
2023-09-18T02:48:43.561Z,69.68
2023-09-18T02:51:16.940Z,69.27
2023-09-18T02:54:01.096Z,69.41
2023-09-18T02:56:34.162Z,69.32
2023-09-18T02:59:16.759Z,69.29
2023-09-18T03:02:05.630Z,69.41
2023-09-18T03:04:50.547Z,69.18
2023-09-18T03:07:34.584Z,68.89
2023-09-18T03:10:20.566Z,68.69
2023-09-18T03:12:53.193Z,68.50
2023-09-18T03:15:38.557Z,68.81
2023-09-18T03:18:23.242Z,68.65
2023-09-18T03:21:05.781Z,68.44
2023-09-18T03:23:38.599Z,68.11
2023-09-18T03:26:11.589Z,68.14
2023-09-18T03:28:55.748Z,68.01
2023-09-18T03:31:30.652Z,68.01
2023-09-18T03:34:14.930Z,67.86
2023-09-18T03:36:58.827Z,69.57
2023-09-18T03:39:32.786Z,68.73
2023-09-18T03:42:18.850Z,68.86
2023-09-18T03:44:51.940Z,69.15
2023-09-18T03:47:36.911Z,68.71
2023-09-18T03:50:11.019Z,68.71
2023-09-18T03:52:54.510Z,68.04
2023-09-18T03:55:29.206Z,67.94
2023-09-18T03:58:14.616Z,67.93
2023-09-18T04:01:00.889Z,67.50
2023-09-18T04:03:33.768Z,68.68
2023-09-18T04:06:06.398Z,68.02
2023-09-18T04:08:50.971Z,67.80
2023-09-18T04:11:35.368Z,66.88
2023-09-18T04:14:20.680Z,67.41
2023-09-18T04:16:54.222Z,66.90
2023-09-18T04:19:39.448Z,66.81
2023-09-18T04:22:23.116Z,66.77
2023-09-18T04:25:08.244Z,66.44
2023-09-18T04:27:54.310Z,66.65
2023-09-18T04:30:29.069Z,66.55
2023-09-18T04:33:16.362Z,66.29
2023-09-18T04:36:00.408Z,66.33
2023-09-18T04:38:33.504Z,66.33
2023-09-18T04:41:18.870Z,66.12
2023-09-18T04:43:52.519Z,66.06
2023-09-18T04:46:37.193Z,65.39
2023-09-18T04:49:13.365Z,66.00
2023-09-18T04:51:58.630Z,65.75
2023-09-18T04:54:35.132Z,65.92
2023-09-18T04:57:20.141Z,65.96
2023-09-18T05:00:01.966Z,66.07
2023-09-18T05:02:41.429Z,66.50
2023-09-18T05:05:16.587Z,66.03
2023-09-18T05:08:00.937Z,64.94
2023-09-18T05:10:35.962Z,64.05
2023-09-18T05:13:20.874Z,63.92
2023-09-18T05:15:54.370Z,63.42
2023-09-18T05:18:40.689Z,63.84
2023-09-18T05:21:15.357Z,64.01
2023-09-18T05:23:50.582Z,63.91
2023-09-18T05:26:35.437Z,63.69
2023-09-18T05:29:19.709Z,62.75
2023-09-18T05:31:53.736Z,63.24
2023-09-18T05:34:40.439Z,63.06
2023-09-18T05:37:16.040Z,63.61
2023-09-18T05:40:01.998Z,62.56
2023-09-18T05:42:47.666Z,61.95
2023-09-18T05:45:33.710Z,60.82
2023-09-18T05:48:16.704Z,60.39
2023-09-18T05:51:03.433Z,60.03
2023-09-18T05:53:37.734Z,59.07
2023-09-18T05:56:23.097Z,58.28
2023-09-18T05:59:08.174Z,57.81
2023-09-18T06:01:44.574Z,57.37
2023-09-18T06:04:28.655Z,56.38
2023-09-18T06:07:02.293Z,55.87
2023-09-18T06:09:48.783Z,55.75
2023-09-18T06:12:33.962Z,54.41
2023-09-18T06:15:16.977Z,54.38
2023-09-18T06:17:50.405Z,54.17
2023-09-18T06:20:35.378Z,54.60
2023-09-18T06:23:19.103Z,55.02
2023-09-18T06:25:54.976Z,55.02
2023-09-18T06:28:41.013Z,56.09
2023-09-18T06:31:15.671Z,55.79
2023-09-18T06:34:00.939Z,56.08
2023-09-18T06:36:35.749Z,56.15
2023-09-18T06:39:21.650Z,56.50
2023-09-18T06:41:55.200Z,56.68
2023-09-18T06:44:42.720Z,57.08
2023-09-18T06:47:17.492Z,57.64
2023-09-18T06:50:01.422Z,57.99
2023-09-18T06:52:46.061Z,58.39
2023-09-18T06:55:32.953Z,58.24
2023-09-18T06:58:18.483Z,59.45
2023-09-18T07:01:03.674Z,59.19
2023-09-18T07:03:52.397Z,59.48
2023-09-18T07:06:37.153Z,59.40
2023-09-18T07:09:21.461Z,59.04
2023-09-18T07:11:56.018Z,60.03
2023-09-18T07:14:29.634Z,60.43
2023-09-18T07:17:15.950Z,60.96
2023-09-18T07:20:02.751Z,60.98
2023-09-18T07:22:37.756Z,60.96
2023-09-18T07:25:25.050Z,60.69
2023-09-18T07:27:58.460Z,61.47
2023-09-18T07:30:43.200Z,60.83
2023-09-18T07:33:26.446Z,61.65
2023-09-18T07:35:59.943Z,60.76
2023-09-18T07:38:44.919Z,61.04
2023-09-18T07:41:30.164Z,60.09
2023-09-18T07:44:03.742Z,61.91
2023-09-18T07:46:49.356Z,61.18
2023-09-18T07:49:23.636Z,60.11
2023-09-18T07:52:12.055Z,59.55
2023-09-18T07:54:46.789Z,58.91
2023-09-18T07:57:32.576Z,58.43
2023-09-18T08:00:10.164Z,57.94
2023-09-18T08:03:00.475Z,58.06
2023-09-18T08:05:35.802Z,57.58
2023-09-18T08:08:21.892Z,57.97
2023-09-18T08:10:56.404Z,59.78
2023-09-18T08:13:40.391Z,59.74
2023-09-18T08:16:15.426Z,58.87
2023-09-18T08:19:00.738Z,57.73
2023-09-18T08:21:35.284Z,57.53
2023-09-18T08:24:22.037Z,59.24
2023-09-18T08:26:57.006Z,58.44
2023-09-18T08:29:48.501Z,57.97
2023-09-18T08:32:22.786Z,56.99
2023-09-18T08:35:10.437Z,57.88
2023-09-18T08:37:44.164Z,56.94
2023-09-18T08:40:28.989Z,57.38
2023-09-18T08:43:05.777Z,56.72
2023-09-18T08:45:57.107Z,56.84
2023-09-18T08:48:34.705Z,55.33
2023-09-18T08:51:21.567Z,56.50
2023-09-18T08:54:08.341Z,56.10
2023-09-18T08:56:42.766Z,58.74
2023-09-18T08:59:16.417Z,56.30
2023-09-18T09:02:04.031Z,55.32
2023-09-18T09:04:50.442Z,54.68
2023-09-18T09:07:25.253Z,54.61
2023-09-18T09:10:12.768Z,56.28
2023-09-18T09:12:56.219Z,58.37
2023-09-18T09:15:51.815Z,58.18
2023-09-18T09:18:27.506Z,57.09
2023-09-18T09:21:13.570Z,57.14
2023-09-18T09:23:57.843Z,57.63
2023-09-18T09:26:45.499Z,58.29
2023-09-18T09:29:27.472Z,62.91
2023-09-18T09:32:19.690Z,62.67
2023-09-18T09:34:54.424Z,63.55
2023-09-18T09:37:41.069Z,63.36
2023-09-18T09:40:15.834Z,66.44
2023-09-18T09:43:04.260Z,65.66
2023-09-18T09:45:38.042Z,68.91
2023-09-18T09:48:23.722Z,70.76
2023-09-18T09:51:01.436Z,70.54
2023-09-18T09:53:49.726Z,71.72
2023-09-18T09:56:49.824Z,69.82
2023-09-18T09:59:25.704Z,69.25
2023-09-18T10:02:04.144Z,69.76
2023-09-18T10:04:49.995Z,70.91
2023-09-18T10:07:24.483Z,70.63
2023-09-18T10:09:58.664Z,68.61
2023-09-18T10:12:46.902Z,67.26
2023-09-18T10:15:35.332Z,68.04
2023-09-18T10:18:46.575Z,66.01
2023-09-18T10:21:57.739Z,63.02
2023-09-18T10:24:34.780Z,63.25
2023-09-18T10:27:23.737Z,63.55
2023-09-18T10:30:01.328Z,63.00
2023-09-18T10:32:38.738Z,62.04
2023-09-18T10:35:27.364Z,61.60
2023-09-18T10:38:15.799Z,59.68
2023-09-18T10:41:06.340Z,59.53
2023-09-18T10:43:51.335Z,58.53
2023-09-18T10:46:36.906Z,57.84
2023-09-18T10:49:25.421Z,59.94
2023-09-18T10:52:19.489Z,60.94
2023-09-18T10:55:11.529Z,60.57
2023-09-18T10:57:55.473Z,58.11
2023-09-18T11:00:45.150Z,59.10
2023-09-18T11:03:20.332Z,59.58
2023-09-18T11:06:08.600Z,58.93
2023-09-18T11:08:55.089Z,57.79
2023-09-18T11:11:39.871Z,57.40
2023-09-18T11:14:24.698Z,57.55
2023-09-18T11:16:59.797Z,57.75
2023-09-18T11:19:51.354Z,58.41
2023-09-18T11:22:25.834Z,58.49
2023-09-18T11:25:37.008Z,58.50
2023-09-18T11:28:34.853Z,57.87
2023-09-18T11:31:07.333Z,58.07
2023-09-18T11:33:56.555Z,57.80
2023-09-18T11:36:34.779Z,58.49
2023-09-18T11:39:40.286Z,58.61
2023-09-18T11:42:26.980Z,58.64
2023-09-18T11:45:01.126Z,59.07
2023-09-18T11:47:48.838Z,60.95
2023-09-18T11:50:24.042Z,62.86
2023-09-18T11:53:10.700Z,62.78
2023-09-18T11:55:46.221Z,63.82
2023-09-18T11:58:31.414Z,62.16
2023-09-18T12:01:24.039Z,62.49
2023-09-18T12:03:59.519Z,62.71
2023-09-18T12:06:45.061Z,63.29
2023-09-18T12:09:35.792Z,61.99
2023-09-18T12:12:11.356Z,61.86
2023-09-18T12:14:58.459Z,61.79
2023-09-18T12:17:36.720Z,61.31
2023-09-18T12:20:22.651Z,61.10
2023-09-18T12:22:56.016Z,60.21
2023-09-18T12:25:47.229Z,60.46
2023-09-18T12:28:34.352Z,60.29
2023-09-18T12:31:10.981Z,60.22
2023-09-18T12:33:50.068Z,58.97
2023-09-18T12:36:40.153Z,59.94
2023-09-18T12:39:39.656Z,60.28
2023-09-18T12:42:14.154Z,60.92
2023-09-18T12:45:04.914Z,60.98
2023-09-18T12:47:43.085Z,61.25
2023-09-18T12:50:31.173Z,60.85
2023-09-18T12:53:18.282Z,62.07
2023-09-18T12:56:19.065Z,61.84
2023-09-18T12:59:10.360Z,63.11
2023-09-18T13:01:51.195Z,63.02
2023-09-18T13:04:42.181Z,62.93
2023-09-18T13:07:32.778Z,64.05
2023-09-18T13:10:21.184Z,64.45
2023-09-18T13:12:59.472Z,63.66
2023-09-18T13:15:36.885Z,63.66
2023-09-18T13:18:32.876Z,64.23
2023-09-18T13:21:22.481Z,64.10
2023-09-18T13:24:12.873Z,63.60
2023-09-18T13:26:55.917Z,63.89
2023-09-18T13:29:43.639Z,64.43
2023-09-18T13:32:58.455Z,64.07
2023-09-18T13:35:33.460Z,65.87
2023-09-18T13:38:28.296Z,64.95
2023-09-18T13:41:16.722Z,63.83
2023-09-18T13:43:53.344Z,63.35
2023-09-18T13:46:54.871Z,62.71
2023-09-18T13:49:36.830Z,62.78
2023-09-18T13:52:23.037Z,62.59
2023-09-18T13:55:14.479Z,61.54
2023-09-18T13:58:06.110Z,61.75
2023-09-18T14:03:57.038Z,56.91
2023-09-18T14:06:35.404Z,52.39
2023-09-18T14:09:24.002Z,50.61
2023-09-18T14:12:02.498Z,48.88
2023-09-18T14:15:07.769Z,50.82
2023-09-18T14:17:42.226Z,51.27
2023-09-18T14:20:32.980Z,53.20
2023-09-18T14:23:21.971Z,55.08
2023-09-18T14:25:58.149Z,56.36
2023-09-18T14:28:52.202Z,58.53
2023-09-18T14:31:41.600Z,59.21
2023-09-18T14:34:32.170Z,59.42
2023-09-18T14:37:15.327Z,61.02
2023-09-18T14:40:07.331Z,62.16
2023-09-18T14:42:54.372Z,62.89
2023-09-18T14:45:41.880Z,63.05
2023-09-18T14:48:37.094Z,63.64
2023-09-18T14:51:13.342Z,64.53
2023-09-18T14:53:59.997Z,64.92
2023-09-18T14:56:33.824Z,67.15
2023-09-18T14:59:35.587Z,67.30
2023-09-18T15:02:16.417Z,68.71
2023-09-18T15:05:05.891Z,68.28
2023-09-18T15:07:49.670Z,68.19
2023-09-18T15:10:38.079Z,67.71
2023-09-18T15:13:26.079Z,68.27
2023-09-18T15:16:01.330Z,68.63
2023-09-18T15:18:47.775Z,69.35
2023-09-18T15:21:23.139Z,70.04
2023-09-18T15:24:08.926Z,70.18
2023-09-18T15:26:57.132Z,72.94
2023-09-18T15:29:35.662Z,72.57
2023-09-18T15:32:21.553Z,72.99
2023-09-18T15:34:56.008Z,73.21
2023-09-18T15:37:42.376Z,73.58
2023-09-18T15:40:22.520Z,75.26
2023-09-18T15:43:08.976Z,75.28
2023-09-18T15:45:46.038Z,75.08
2023-09-18T15:48:32.668Z,75.59
2023-09-18T15:51:18.360Z,75.91
2023-09-18T15:53:55.178Z,77.66
2023-09-18T15:57:01.041Z,77.46
2023-09-18T15:59:37.138Z,77.11
2023-09-18T16:02:17.330Z,77.35
2023-09-18T16:05:12.028Z,77.82
2023-09-18T16:07:52.254Z,78.05
2023-09-18T16:10:38.916Z,78.44
2023-09-18T16:13:12.486Z,78.97
2023-09-18T16:15:58.222Z,79.29
2023-09-18T16:18:32.239Z,79.42
2023-09-18T16:21:06.383Z,79.91
2023-09-18T16:23:54.427Z,80.05
2023-09-18T16:26:27.945Z,80.05
2023-09-18T16:29:01.502Z,80.11
2023-09-18T16:31:46.631Z,80.68
2023-09-18T16:34:38.477Z,80.70
2023-09-18T16:37:22.155Z,81.12
2023-09-18T16:39:56.643Z,80.80
2023-09-18T16:42:48.065Z,81.33
2023-09-18T16:45:36.213Z,81.67
2023-09-18T16:48:23.148Z,81.98
2023-09-18T16:50:58.681Z,82.30
2023-09-18T16:53:45.101Z,82.72
2023-09-18T16:56:31.216Z,82.85
2023-09-18T16:59:08.094Z,82.85
2023-09-18T17:01:54.740Z,83.43
2023-09-18T17:07:23.828Z,84.83
2023-09-18T17:10:13.552Z,85.08
2023-09-18T17:13:04.228Z,85.15
2023-09-18T17:15:39.160Z,85.07
2023-09-18T17:18:32.532Z,85.30
2023-09-18T17:21:21.416Z,85.21
2023-09-18T17:24:09.963Z,85.55
2023-09-18T17:26:48.580Z,85.28
2023-09-18T17:29:36.838Z,85.50
2023-09-18T17:32:11.516Z,85.43
2023-09-18T17:34:59.912Z,85.54
2023-09-18T17:37:51.200Z,86.70
2023-09-18T17:40:39.622Z,86.53
2023-09-18T17:43:28.179Z,85.94
2023-09-18T17:46:12.474Z,85.59
2023-09-18T17:48:58.573Z,85.81
2023-09-18T17:51:33.159Z,85.81
2023-09-18T17:54:18.220Z,86.30
2023-09-18T17:57:01.666Z,88.17
2023-09-18T17:59:48.402Z,87.99
2023-09-18T18:02:33.815Z,87.87
2023-09-18T18:05:08.796Z,87.50
2023-09-18T18:07:58.534Z,87.59
2023-09-18T18:10:48.242Z,88.13
2023-09-18T18:13:21.223Z,88.07
2023-09-18T18:16:07.867Z,87.81
2023-09-18T18:18:41.431Z,87.52
2023-09-18T18:21:15.110Z,87.46
2023-09-18T18:24:01.372Z,87.52
2023-09-18T18:26:44.880Z,88.27
2023-09-18T18:29:17.529Z,88.15
2023-09-18T18:32:04.119Z,88.03
2023-09-18T18:34:38.194Z,87.80
2023-09-18T18:37:24.317Z,87.69
2023-09-18T18:40:13.552Z,87.77
2023-09-18T18:43:03.591Z,87.60
2023-09-18T18:45:54.342Z,87.64
2023-09-18T18:48:39.452Z,87.82
2023-09-18T18:51:18.846Z,87.66
2023-09-18T18:54:04.740Z,88.23
2023-09-18T18:56:41.495Z,87.95
2023-09-18T18:59:27.013Z,88.06
2023-09-18T19:02:11.834Z,88.04
2023-09-18T19:04:56.528Z,88.26
2023-09-18T19:07:29.347Z,88.31
2023-09-18T19:10:02.090Z,88.52
2023-09-18T19:12:48.452Z,88.88
2023-09-18T19:15:23.061Z,88.76
2023-09-18T19:18:07.514Z,88.95
2023-09-18T19:20:40.711Z,89.72
2023-09-18T19:23:20.543Z,89.86
2023-09-18T19:26:02.389Z,89.51
2023-09-18T19:28:47.171Z,89.12
2023-09-18T19:31:25.032Z,88.83
2023-09-18T19:34:18.688Z,88.57
2023-09-18T19:37:09.044Z,88.40
2023-09-18T19:39:41.885Z,87.65
2023-09-18T19:42:26.566Z,87.92
2023-09-18T19:45:01.434Z,87.70
2023-09-18T19:47:49.646Z,88.08
2023-09-18T19:50:36.412Z,87.47
2023-09-18T19:53:23.540Z,87.48
2023-09-18T19:56:34.145Z,87.71
2023-09-18T19:59:23.323Z,88.87
2023-09-18T20:05:27.124Z,88.20
2023-09-18T20:07:59.943Z,87.50
2023-09-18T20:10:44.829Z,87.66
2023-09-18T20:13:17.805Z,87.50
2023-09-18T20:16:03.464Z,87.66
2023-09-18T20:18:47.886Z,88.88
2023-09-18T20:21:22.620Z,88.43
2023-09-18T20:24:08.245Z,88.64
2023-09-18T20:26:42.527Z,88.23
2023-09-18T20:29:26.915Z,88.21
2023-09-18T20:32:12.994Z,88.17
2023-09-18T20:34:47.462Z,87.78
2023-09-18T20:37:32.192Z,87.99
2023-09-18T20:40:05.332Z,88.72
2023-09-18T20:42:47.939Z,88.74
2023-09-18T20:45:34.616Z,88.53
2023-09-18T20:48:18.763Z,88.54
2023-09-18T20:50:53.103Z,88.48
2023-09-18T20:53:38.361Z,88.39
2023-09-18T20:56:11.500Z,88.36
2023-09-18T20:58:58.356Z,88.47
2023-09-18T21:01:31.943Z,89.59
2023-09-18T21:04:17.035Z,89.47
2023-09-18T21:07:01.704Z,89.27
2023-09-18T21:09:45.967Z,89.04
2023-09-18T21:12:20.641Z,88.86
2023-09-18T21:15:04.082Z,89.00
2023-09-18T21:17:49.804Z,89.12
2023-09-18T21:20:24.060Z,88.99
2023-09-18T21:23:08.384Z,89.09
2023-09-18T21:25:54.271Z,89.36
2023-09-18T21:28:27.860Z,89.42
2023-09-18T21:31:14.671Z,89.87
2023-09-18T21:34:00.221Z,89.79
2023-09-18T21:36:32.957Z,89.65
2023-09-18T21:39:16.234Z,89.91
2023-09-18T21:41:49.453Z,89.79
2023-09-18T21:44:34.292Z,90.01
2023-09-18T21:47:18.933Z,89.88
2023-09-18T21:50:04.950Z,90.08
2023-09-18T21:52:54.929Z,91.24
2023-09-18T21:55:27.790Z,91.27
2023-09-18T21:58:12.454Z,91.00
2023-09-18T22:00:45.692Z,90.92
2023-09-18T22:03:31.626Z,90.92
2023-09-18T22:06:06.206Z,91.52
2023-09-18T22:08:49.718Z,91.49
2023-09-18T22:11:34.966Z,91.29
2023-09-18T22:14:20.754Z,91.27
2023-09-18T22:16:53.581Z,91.41
2023-09-18T22:19:38.687Z,91.25
2023-09-18T22:22:23.434Z,90.98
2023-09-18T22:24:56.008Z,91.12
2023-09-18T22:27:40.336Z,91.00
2023-09-18T22:30:23.259Z,90.97
2023-09-18T22:33:08.153Z,90.93
2023-09-18T22:35:41.095Z,90.86
2023-09-18T22:38:33.026Z,90.78
2023-09-18T22:41:17.204Z,91.33
2023-09-18T22:44:27.626Z,91.26
2023-09-18T22:47:47.279Z,91.23
2023-09-18T22:51:05.767Z,91.41
2023-09-18T22:53:47.108Z,91.35
2023-09-18T22:56:31.536Z,91.41
2023-09-18T22:59:16.974Z,91.46
2023-09-18T23:01:49.837Z,91.30
2023-09-18T23:04:32.314Z,91.28
2023-09-18T23:07:07.387Z,91.05
2023-09-18T23:09:52.450Z,90.86
2023-09-18T23:12:27.934Z,90.61
2023-09-18T23:15:17.674Z,90.59
2023-09-18T23:18:01.938Z,90.51
2023-09-18T23:20:36.968Z,90.23
2023-09-18T23:23:23.056Z,89.99
2023-09-18T23:26:09.757Z,89.73
2023-09-18T23:28:52.309Z,89.31
2023-09-18T23:31:25.295Z,88.91
2023-09-18T23:34:09.760Z,88.50
2023-09-18T23:36:43.337Z,87.91
2023-09-18T23:39:29.232Z,87.01
2023-09-18T23:42:03.709Z,86.12
2023-09-18T23:44:49.241Z,85.43
2023-09-18T23:47:21.902Z,84.76
2023-09-18T23:50:08.493Z,84.22
2023-09-18T23:52:42.979Z,83.37
2023-09-18T23:55:27.868Z,83.17
2023-09-18T23:58:12.851Z,82.30
